createdAt,value
2023-01-02T00:00:20.694Z,0
2023-01-02T00:01:22.375Z,0
2023-01-02T00:02:29.574Z,0
2023-01-02T00:03:36.823Z,-0.1
2023-01-02T00:04:43.191Z,0
2023-01-02T00:05:50.342Z,0
2023-01-02T00:06:57.451Z,-0.1
2023-01-02T00:08:04.638Z,-0.1
2023-01-02T00:09:11.669Z,0
2023-01-02T00:10:18.218Z,-0.1
2023-01-02T00:11:25.359Z,-0.1
2023-01-02T00:12:32.406Z,0
2023-01-02T00:13:39.632Z,0
2023-01-02T00:14:46.660Z,-0.1
2023-01-02T00:15:53.283Z,0
2023-01-02T00:17:00.378Z,-0.1
2023-01-02T00:18:07.953Z,0
2023-01-02T00:19:14.590Z,0
2023-01-02T00:20:21.663Z,-0.1
2023-01-02T00:21:28.249Z,-0.1
2023-01-02T00:22:35.292Z,-0.1
2023-01-02T00:23:42.419Z,0
2023-01-02T00:24:49.600Z,-0.1
2023-01-02T00:25:56.637Z,-0.1
2023-01-02T00:27:03.188Z,-0.1
2023-01-02T00:28:10.399Z,-0.1
2023-01-02T00:29:17.521Z,-0.1
2023-01-02T00:30:24.608Z,-0.2
2023-01-02T00:31:31.771Z,-0.2
2023-01-02T00:32:38.278Z,-0.1
2023-01-02T00:33:45.353Z,-0.1
2023-01-02T00:34:52.453Z,-0.1
2023-01-02T00:35:59.663Z,-0.1
2023-01-02T00:37:06.641Z,-0.1
2023-01-02T00:38:13.245Z,-0.1
2023-01-02T00:39:20.884Z,-0.2
2023-01-02T00:40:27.497Z,-0.2
2023-01-02T00:41:34.531Z,-0.2
2023-01-02T00:42:41.720Z,-0.2
2023-01-02T00:43:48.243Z,-0.1
2023-01-02T00:44:55.418Z,-0.2
2023-01-02T00:47:09.675Z,-0.2
2023-01-02T00:48:16.682Z,-0.2
2023-01-02T00:49:23.252Z,-0.2
2023-01-02T00:50:30.377Z,-0.2
2023-01-02T00:51:37.541Z,-0.2
2023-01-02T00:52:44.555Z,-0.2
2023-01-02T00:53:51.696Z,-0.2
2023-01-02T00:54:58.295Z,-0.1
2023-01-02T00:56:05.380Z,-0.1
2023-01-02T00:57:12.443Z,-0.1
2023-01-02T00:58:19.593Z,-0.1
2023-01-02T00:59:26.691Z,-0.1
2023-01-02T01:00:33.398Z,-0.1
2023-01-02T01:01:40.596Z,-0.1
2023-01-02T01:03:54.604Z,0
2023-01-02T01:05:01.700Z,0
2023-01-02T01:06:08.326Z,0
2023-01-02T01:07:15.437Z,0
2023-01-02T01:08:22.500Z,0
2023-01-02T01:09:29.645Z,0
2023-01-02T01:10:36.772Z,0
2023-01-02T01:11:43.357Z,0
2023-01-02T01:12:50.399Z,0
2023-01-02T01:13:57.490Z,0
2023-01-02T01:15:04.604Z,0
2023-01-02T01:16:11.812Z,0
2023-01-02T01:17:18.335Z,0.1
2023-01-02T01:18:25.402Z,0
2023-01-02T01:19:32.486Z,0
2023-01-02T01:20:39.634Z,0
2023-01-02T01:21:46.973Z,0
2023-01-02T01:22:53.266Z,0
2023-01-02T01:24:00.378Z,0
2023-01-02T01:25:07.536Z,0
2023-01-02T01:26:14.580Z,0
2023-01-02T01:27:21.295Z,0
2023-01-02T01:28:28.310Z,0
2023-01-02T01:29:35.432Z,0
2023-01-02T01:30:42.522Z,0
2023-01-02T01:31:49.748Z,0
2023-01-02T01:32:56.226Z,0
2023-01-02T01:34:03.272Z,0
2023-01-02T01:35:10.493Z,0
2023-01-02T01:36:17.566Z,0
2023-01-02T01:37:24.628Z,0.1
2023-01-02T01:38:31.747Z,0.1
2023-01-02T01:39:38.331Z,0
2023-01-02T01:40:45.411Z,0
2023-01-02T01:41:52.568Z,0.1
2023-01-02T01:43:01.192Z,0.1
2023-01-02T01:44:06.730Z,0.1
2023-01-02T01:45:13.285Z,0.1
2023-01-02T01:46:20.433Z,0.1
2023-01-02T01:47:27.594Z,0.1
2023-01-02T01:48:34.642Z,0.1
2023-01-02T01:49:41.753Z,0.1
2023-01-02T01:50:48.362Z,0.1
2023-01-02T01:51:55.496Z,0.1
2023-01-02T01:53:02.499Z,0.1
2023-01-02T01:54:09.610Z,0.1
2023-01-02T01:55:16.805Z,0.1
2023-01-02T01:56:23.310Z,0.2
2023-01-02T01:57:30.471Z,0.2
2023-01-02T01:58:37.579Z,0.2
2023-01-02T01:59:44.618Z,0.2
2023-01-02T02:00:51.241Z,0.2
2023-01-02T02:01:58.626Z,0.2
2023-01-02T02:03:05.506Z,0.2
2023-01-02T02:04:12.558Z,0.2
2023-01-02T02:05:19.695Z,0.2
2023-01-02T02:08:40.616Z,0.2
2023-01-02T02:09:47.054Z,0.2
2023-01-02T02:10:54.644Z,0.2
2023-01-02T02:12:01.344Z,0.2
2023-01-02T02:13:08.360Z,0.2
2023-01-02T02:15:22.634Z,0.2
2023-01-02T02:16:29.785Z,0.3
2023-01-02T02:17:36.792Z,0.3
2023-01-02T02:18:43.361Z,0.3
2023-01-02T02:19:50.492Z,0.3
2023-01-02T02:20:57.645Z,0.3
2023-01-02T02:22:04.693Z,0.3
2023-01-02T02:23:11.310Z,0.3
2023-01-02T02:24:18.414Z,0.3
2023-01-02T02:25:26.061Z,0.4
2023-01-02T02:26:32.631Z,0.4
2023-01-02T02:27:39.712Z,0.4
2023-01-02T02:28:46.275Z,0.4
2023-01-02T02:29:53.387Z,0.4
2023-01-02T02:31:00.516Z,0.4
2023-01-02T02:32:07.746Z,0.4
2023-01-02T02:33:14.662Z,0.4
2023-01-02T02:34:21.323Z,0.4
2023-01-02T02:35:28.421Z,0.4
2023-01-02T02:36:35.531Z,0.4
2023-01-02T02:37:42.641Z,0.4
2023-01-02T02:38:49.777Z,0.4
2023-01-02T02:39:56.327Z,0.4
2023-01-02T02:41:03.407Z,0.4
2023-01-02T02:42:10.583Z,0.4
2023-01-02T02:43:17.640Z,0.5
2023-01-02T02:44:24.706Z,0.5
2023-01-02T02:45:31.382Z,0.5
2023-01-02T02:46:38.408Z,0.5
2023-01-02T02:47:45.582Z,0.5
2023-01-02T02:48:52.582Z,0.5
2023-01-02T02:49:59.722Z,0.5
2023-01-02T02:52:13.464Z,0.5
2023-01-02T02:53:20.552Z,0.5
2023-01-02T02:54:27.610Z,0.5
2023-01-02T02:55:34.727Z,0.5
2023-01-02T02:56:41.400Z,0.6
2023-01-02T02:57:48.441Z,0.6
2023-01-02T02:58:55.568Z,0.6
2023-01-02T03:00:02.602Z,0.5
2023-01-02T03:01:09.778Z,0.6
2023-01-02T03:02:16.627Z,0.6
2023-01-02T03:03:23.487Z,0.6
2023-01-02T03:04:30.555Z,0.6
2023-01-02T03:05:37.668Z,0.6
2023-01-02T03:06:44.766Z,0.6
2023-01-02T03:07:51.391Z,0.6
2023-01-02T03:08:58.438Z,0.6
2023-01-02T03:11:12.781Z,0.6
2023-01-02T03:12:20.243Z,0.6
2023-01-02T03:13:26.393Z,0.6
2023-01-02T03:14:33.437Z,0.6
2023-01-02T03:15:40.546Z,0.6
2023-01-02T03:16:47.727Z,0.6
2023-01-02T03:17:54.725Z,0.6
2023-01-02T03:19:01.368Z,0.6
2023-01-02T03:20:08.475Z,0.6
2023-01-02T03:21:15.520Z,0.6
2023-01-02T03:22:22.692Z,0.6
2023-01-02T03:23:29.265Z,0.6
2023-01-02T03:24:36.381Z,0.6
2023-01-02T03:25:43.454Z,0.6
2023-01-02T03:26:50.627Z,0.6
2023-01-02T03:27:57.668Z,0.7
2023-01-02T03:29:04.773Z,0.7
2023-01-02T03:30:11.406Z,0.8
2023-01-02T03:31:18.559Z,0.8
2023-01-02T03:32:25.637Z,0.8
2023-01-02T03:33:32.689Z,0.8
2023-01-02T03:34:39.313Z,0.8
2023-01-02T03:35:46.387Z,0.8
2023-01-02T03:36:53.434Z,0.8
2023-01-02T03:38:00.572Z,0.8
2023-01-02T03:39:07.714Z,0.8
2023-01-02T03:40:14.797Z,0.9
2023-01-02T03:41:21.407Z,0.9
2023-01-02T03:43:35.611Z,1
2023-01-02T03:44:42.684Z,1
2023-01-02T03:45:49.368Z,1
2023-01-02T03:46:56.464Z,1.1
2023-01-02T03:48:03.529Z,1.2
2023-01-02T03:49:10.619Z,1.2
2023-01-02T03:50:17.751Z,1.3
2023-01-02T03:51:24.288Z,1.4
2023-01-02T03:52:31.485Z,1.4
2023-01-02T03:53:41.736Z,1.6
2023-01-02T03:54:45.677Z,1.6
2023-01-02T03:55:52.695Z,1.6
2023-01-02T03:56:59.328Z,1.7
2023-01-02T03:58:06.434Z,1.8
2023-01-02T03:59:13.465Z,1.8
2023-01-02T04:00:20.606Z,1.9
2023-01-02T04:01:27.842Z,1.9
2023-01-02T04:02:34.971Z,2
2023-01-02T04:03:41.438Z,2
2023-01-02T04:04:50.837Z,2
2023-01-02T04:05:55.665Z,2
2023-01-02T04:07:02.749Z,2
2023-01-02T04:08:09.307Z,2.1
2023-01-02T04:09:16.430Z,2.1
2023-01-02T04:10:23.478Z,2.1
2023-01-02T04:11:30.682Z,2.1
2023-01-02T04:12:37.813Z,2.1
2023-01-02T04:13:44.335Z,2.1
2023-01-02T04:14:51.478Z,2.1
2023-01-02T04:15:58.609Z,2.1
2023-01-02T04:17:05.601Z,2.2
2023-01-02T04:18:12.744Z,2.2
2023-01-02T04:19:19.355Z,2.1
2023-01-02T04:20:26.432Z,2.1
2023-01-02T04:21:33.524Z,2.1
2023-01-02T04:22:40.703Z,2.1
2023-01-02T04:23:47.763Z,2.1
2023-01-02T04:24:54.863Z,2
2023-01-02T04:26:01.460Z,2.1
2023-01-02T04:27:08.609Z,2
2023-01-02T04:28:15.645Z,2.1
2023-01-02T04:29:22.752Z,2.1
2023-01-02T04:30:29.372Z,2.1
2023-01-02T04:31:36.484Z,2.1
2023-01-02T04:32:44.094Z,2.1
2023-01-02T04:33:50.705Z,2.1
2023-01-02T04:34:57.758Z,2.2
2023-01-02T04:36:04.334Z,2.2
2023-01-02T04:37:11.550Z,2.3
2023-01-02T04:38:18.616Z,2.4
2023-01-02T04:39:25.660Z,2.4
2023-01-02T04:40:32.779Z,2.5
2023-01-02T04:41:39.383Z,2.6
2023-01-02T04:42:46.499Z,2.6
2023-01-02T04:43:53.577Z,2.6
2023-01-02T04:45:00.631Z,2.7
2023-01-02T04:46:07.822Z,2.8
2023-01-02T04:47:21.507Z,2.8
2023-01-02T04:48:21.464Z,2.8
2023-01-02T04:49:28.613Z,2.8
2023-01-02T04:50:35.642Z,2.8
2023-01-02T04:51:42.798Z,2.9
2023-01-02T04:52:49.367Z,2.9
2023-01-02T04:53:56.483Z,2.9
2023-01-02T04:55:03.570Z,2.9
2023-01-02T04:56:10.695Z,2.9
2023-01-02T04:57:17.887Z,2.9
2023-01-02T04:58:24.423Z,3
2023-01-02T04:59:31.504Z,3
2023-01-02T05:00:38.628Z,3
2023-01-02T05:01:45.794Z,3
2023-01-02T05:02:52.908Z,3
2023-01-02T05:03:59.411Z,3
2023-01-02T05:05:06.508Z,3
2023-01-02T05:06:13.556Z,3
2023-01-02T05:07:20.789Z,3
2023-01-02T05:08:27.801Z,3
2023-01-02T05:09:34.389Z,3
2023-01-02T05:11:48.604Z,3
2023-01-02T05:12:55.809Z,3
2023-01-02T05:14:07.231Z,3
2023-01-02T05:15:09.396Z,3
2023-01-02T05:16:16.556Z,3
2023-01-02T05:17:23.715Z,3.1
2023-01-02T05:18:30.762Z,3.1
2023-01-02T05:19:37.825Z,3.1
2023-01-02T05:20:44.364Z,3.1
2023-01-02T05:21:51.584Z,3.2
2023-01-02T05:22:58.606Z,3.2
2023-01-02T05:24:05.745Z,3.2
2023-01-02T05:25:12.312Z,3.2
2023-01-02T05:26:19.418Z,3.2
2023-01-02T05:27:26.531Z,3.2
2023-01-02T05:28:38.364Z,3.2
2023-01-02T05:29:40.767Z,3.2
2023-01-02T05:30:47.349Z,3.2
2023-01-02T05:31:54.485Z,3.2
2023-01-02T05:33:01.569Z,3.2
2023-01-02T05:34:08.661Z,3.2
2023-01-02T05:35:15.732Z,3.2
2023-01-02T05:37:29.510Z,3.2
2023-01-02T05:38:36.681Z,3.2
2023-01-02T05:39:43.633Z,3.2
2023-01-02T05:40:50.775Z,3.2
2023-01-02T05:41:57.314Z,3.2
2023-01-02T05:43:04.397Z,3.3
2023-01-02T05:44:11.564Z,3.4
2023-01-02T05:45:18.655Z,3.4
2023-01-02T05:46:25.838Z,3.4
2023-01-02T05:47:32.443Z,3.4
2023-01-02T05:48:39.443Z,3.4
2023-01-02T05:49:46.538Z,3.4
2023-01-02T05:50:53.616Z,3.4
2023-01-02T05:52:00.812Z,3.4
2023-01-02T05:53:07.334Z,3.4
2023-01-02T05:54:14.414Z,3.4
2023-01-02T05:55:21.590Z,3.4
2023-01-02T05:56:28.664Z,3.4
2023-01-02T05:57:35.827Z,3.3
2023-01-02T05:58:42.902Z,3.4
2023-01-02T05:59:49.466Z,3.4
2023-01-02T06:00:56.582Z,3.4
2023-01-02T06:02:03.869Z,3.4
2023-01-02T06:03:10.814Z,3.4
2023-01-02T06:04:19.856Z,3.4
2023-01-02T06:05:24.426Z,3.4
2023-01-02T06:06:31.579Z,3.4
2023-01-02T06:07:38.753Z,3.4
2023-01-02T06:08:45.783Z,3.4
2023-01-02T06:09:52.354Z,3.4
2023-01-02T06:10:59.495Z,3.4
2023-01-02T06:12:06.625Z,3.4
2023-01-02T06:13:13.706Z,3.4
2023-01-02T06:14:20.814Z,3.4
2023-01-02T06:15:27.432Z,3.4
2023-01-02T06:16:34.542Z,3.4
2023-01-02T06:17:41.662Z,3.4
2023-01-02T06:18:48.689Z,3.5
2023-01-02T06:19:55.828Z,3.5
2023-01-02T06:21:02.898Z,3.5
2023-01-02T06:22:09.514Z,3.6
2023-01-02T06:23:16.612Z,3.5
2023-01-02T06:24:23.701Z,3.6
2023-01-02T06:25:30.834Z,3.6
2023-01-02T06:26:37.370Z,3.6
2023-01-02T06:27:44.533Z,3.6
2023-01-02T06:28:51.593Z,3.6
2023-01-02T06:29:58.754Z,3.5
2023-01-02T06:31:05.892Z,3.6
2023-01-02T06:32:12.498Z,3.6
2023-01-02T06:33:19.533Z,3.6
2023-01-02T06:34:26.604Z,3.6
2023-01-02T06:35:33.677Z,3.6
2023-01-02T06:36:41.018Z,3.5
2023-01-02T06:37:47.397Z,3.5
2023-01-02T06:41:08.742Z,3.6
2023-01-02T06:42:15.907Z,3.6
2023-01-02T06:43:22.410Z,3.5
2023-01-02T06:44:29.583Z,3.6
2023-01-02T06:45:36.688Z,3.5
2023-01-02T06:46:43.736Z,3.5
2023-01-02T06:47:51.019Z,3.6
2023-01-02T06:48:57.407Z,3.5
2023-01-02T06:50:04.511Z,3.5
2023-01-02T06:51:11.598Z,3.6
2023-01-02T06:52:20.269Z,3.6
2023-01-02T06:53:25.952Z,3.5
2023-01-02T06:54:32.449Z,3.5
2023-01-02T06:55:39.527Z,3.6
2023-01-02T06:56:46.639Z,3.6
2023-01-02T06:57:53.764Z,3.5
2023-01-02T06:59:00.830Z,3.5
2023-01-02T07:00:07.436Z,3.6
2023-01-02T07:01:14.692Z,3.5
2023-01-02T07:02:21.845Z,3.6
2023-01-02T07:03:28.753Z,3.6
2023-01-02T07:04:35.333Z,3.6
2023-01-02T07:05:42.445Z,3.5
2023-01-02T07:06:49.583Z,3.5
2023-01-02T07:07:56.734Z,3.6
2023-01-02T07:09:03.762Z,3.6
2023-01-02T07:10:10.865Z,3.7
2023-01-02T07:11:17.470Z,3.6
2023-01-02T07:12:24.589Z,3.6
2023-01-02T07:13:31.623Z,3.7
2023-01-02T07:14:38.761Z,3.7
2023-01-02T07:15:46.461Z,3.7
2023-01-02T07:16:52.515Z,3.7
2023-01-02T07:17:59.585Z,3.7
2023-01-02T07:19:06.681Z,3.6
2023-01-02T07:20:13.833Z,3.7
2023-01-02T07:21:20.417Z,3.6
2023-01-02T07:22:27.514Z,3.7
2023-01-02T07:23:34.571Z,3.7
2023-01-02T07:24:41.693Z,3.7
2023-01-02T07:25:48.770Z,3.6
2023-01-02T07:26:55.353Z,3.6
2023-01-02T07:28:02.533Z,3.6
2023-01-02T07:29:10.932Z,3.6
2023-01-02T07:30:16.674Z,3.6
2023-01-02T07:31:23.858Z,3.6
2023-01-02T07:32:30.906Z,3.6
2023-01-02T07:33:37.518Z,3.6
2023-01-02T07:34:44.554Z,3.6
2023-01-02T07:35:51.840Z,3.6
2023-01-02T07:36:58.843Z,3.7
2023-01-02T07:38:05.464Z,3.6
2023-01-02T07:39:12.458Z,3.6
2023-01-02T07:40:19.625Z,3.6
2023-01-02T07:41:26.717Z,3.6
2023-01-02T07:42:33.942Z,3.6
2023-01-02T07:44:47.561Z,3.7
2023-01-02T07:45:54.625Z,3.6
2023-01-02T07:47:01.867Z,3.6
2023-01-02T07:48:08.865Z,3.6
2023-01-02T07:49:15.422Z,3.6
2023-01-02T07:50:22.509Z,3.6
2023-01-02T07:51:29.660Z,3.6
2023-01-02T07:52:36.805Z,3.6
2023-01-02T07:53:43.823Z,3.6
2023-01-02T07:54:50.976Z,3.6
2023-01-02T07:55:57.556Z,3.6
2023-01-02T07:57:04.612Z,3.6
2023-01-02T07:58:11.733Z,3.5
2023-01-02T07:59:18.864Z,3.5
2023-01-02T08:00:25.413Z,3.5
2023-01-02T08:01:32.700Z,3.5
2023-01-02T08:02:39.825Z,3.4
2023-01-02T08:03:46.866Z,3.4
2023-01-02T08:04:53.839Z,3.4
2023-01-02T08:06:00.427Z,3.4
2023-01-02T08:08:14.667Z,3.3
2023-01-02T08:09:21.763Z,3.2
2023-01-02T08:10:28.835Z,3.2
2023-01-02T08:11:35.427Z,3.2
2023-01-02T08:12:42.564Z,3.2
2023-01-02T08:13:49.689Z,3.2
2023-01-02T08:14:56.825Z,3.2
2023-01-02T08:16:03.825Z,3.2
2023-01-02T08:17:10.641Z,3.2
2023-01-02T08:18:17.612Z,3.2
2023-01-02T08:19:24.678Z,3.2
2023-01-02T08:20:31.768Z,3.2
2023-01-02T08:21:38.894Z,3.2
2023-01-02T08:22:45.444Z,3.2
2023-01-02T08:23:52.566Z,3.2
2023-01-02T08:24:59.700Z,3.2
2023-01-02T08:26:06.796Z,3.3
2023-01-02T08:27:13.888Z,3.3
2023-01-02T08:28:20.472Z,3.3
2023-01-02T08:29:27.616Z,3.3
2023-01-02T08:30:34.712Z,3.2
2023-01-02T08:31:43.718Z,3.3
2023-01-02T08:32:48.957Z,3.3
2023-01-02T08:33:55.482Z,3.3
2023-01-02T08:35:02.615Z,3.3
2023-01-02T08:36:09.719Z,3.3
2023-01-02T08:37:16.761Z,3.3
2023-01-02T08:38:23.898Z,3.3
2023-01-02T08:39:30.471Z,3.4
2023-01-02T08:40:37.568Z,3.3
2023-01-02T08:41:44.673Z,3.4
2023-01-02T08:42:51.904Z,3.4
2023-01-02T08:43:59.453Z,3.4
2023-01-02T08:45:05.472Z,3.4
2023-01-02T08:46:12.770Z,3.4
2023-01-02T08:48:26.832Z,3.4
2023-01-02T08:49:33.390Z,3.4
2023-01-02T08:50:40.545Z,3.4
2023-01-02T08:51:47.627Z,3.4
2023-01-02T08:52:54.706Z,3.4
2023-01-02T08:54:01.844Z,3.4
2023-01-02T08:55:08.387Z,3.4
2023-01-02T08:56:15.513Z,3.4
2023-01-02T08:57:22.653Z,3.5
2023-01-02T08:58:29.740Z,3.5
2023-01-02T08:59:36.844Z,3.5
2023-01-02T09:00:43.367Z,3.5
2023-01-02T09:01:50.705Z,3.4
2023-01-02T09:02:57.804Z,3.4
2023-01-02T09:04:11.473Z,3.4
2023-01-02T09:05:11.835Z,3.4
2023-01-02T09:06:22.018Z,3.4
2023-01-02T09:07:25.590Z,3.4
2023-01-02T09:08:32.578Z,3.4
2023-01-02T09:09:39.745Z,3.4
2023-01-02T09:10:46.843Z,3.4
2023-01-02T09:11:53.458Z,3.4
2023-01-02T09:13:00.558Z,3.4
2023-01-02T09:14:07.646Z,3.4
2023-01-02T09:15:14.685Z,3.4
2023-01-02T09:16:21.887Z,3.5
2023-01-02T09:17:28.483Z,3.5
2023-01-02T09:18:35.504Z,3.5
2023-01-02T09:19:42.654Z,3.6
2023-01-02T09:20:49.752Z,3.5
2023-01-02T09:21:56.843Z,3.6
2023-01-02T09:23:03.521Z,3.6
2023-01-02T09:24:10.601Z,3.6
2023-01-02T09:25:23.678Z,3.6
2023-01-02T09:26:24.732Z,3.6
2023-01-02T09:27:31.853Z,3.6
2023-01-02T09:28:38.992Z,3.6
2023-01-02T09:29:45.532Z,3.6
2023-01-02T09:30:52.730Z,3.6
2023-01-02T09:31:59.760Z,3.6
2023-01-02T09:33:06.938Z,3.7
2023-01-02T09:34:13.483Z,3.7
2023-01-02T09:36:27.686Z,3.7
2023-01-02T09:37:34.792Z,3.7
2023-01-02T09:38:41.894Z,3.7
2023-01-02T09:39:48.457Z,3.7
2023-01-02T09:40:55.564Z,19.2
2023-01-02T09:42:02.690Z,3.7
2023-01-02T09:43:09.823Z,3.7
2023-01-02T09:44:16.901Z,3.7
2023-01-02T09:45:23.410Z,3.7
2023-01-02T09:46:30.713Z,3.7
2023-01-02T09:47:37.751Z,3.7
2023-01-02T09:48:44.735Z,3.7
2023-01-02T09:49:51.889Z,3.7
2023-01-02T09:52:05.602Z,3.7
2023-01-02T09:53:12.686Z,3.7
2023-01-02T09:54:19.813Z,3.8
2023-01-02T09:55:26.912Z,3.8
2023-01-02T09:56:33.946Z,3.8
2023-01-02T09:57:40.662Z,3.8
2023-01-02T09:58:47.800Z,3.8
2023-01-02T09:59:54.748Z,3.8
2023-01-02T10:01:01.908Z,3.8
2023-01-02T10:02:08.493Z,3.8
2023-01-02T10:03:15.878Z,3.8
2023-01-02T10:04:22.766Z,3.8
2023-01-02T10:05:29.805Z,3.8
2023-01-02T10:06:36.899Z,3.8
2023-01-02T10:07:43.488Z,3.8
2023-01-02T10:08:50.817Z,3.8
2023-01-02T10:09:57.711Z,3.7
2023-01-02T10:11:04.808Z,3.7
2023-01-02T10:12:12.432Z,3.7
2023-01-02T10:13:18.498Z,3.6
2023-01-02T10:14:34.772Z,3.6
2023-01-02T10:15:32.708Z,3.6
2023-01-02T10:16:39.833Z,3.6
2023-01-02T10:17:46.947Z,3.6
2023-01-02T10:18:53.501Z,3.6
2023-01-02T10:20:00.676Z,3.6
2023-01-02T10:21:07.745Z,3.6
2023-01-02T10:22:14.793Z,3.7
2023-01-02T10:23:21.935Z,3.7
2023-01-02T10:24:28.551Z,3.7
2023-01-02T10:25:35.674Z,3.7
2023-01-02T10:26:42.715Z,3.8
2023-01-02T10:27:49.853Z,3.8
2023-01-02T10:28:56.941Z,3.8
2023-01-02T10:30:03.503Z,3.8
2023-01-02T10:31:10.745Z,3.8
2023-01-02T10:32:17.723Z,3.9
2023-01-02T10:33:25.842Z,4
2023-01-02T10:34:50.149Z,4
2023-01-02T10:35:38.586Z,4
2023-01-02T10:36:45.731Z,4.1
2023-01-02T10:37:52.701Z,4.1
2023-01-02T10:38:59.856Z,4.2
2023-01-02T10:40:06.964Z,4.2
2023-01-02T10:41:13.554Z,4.2
2023-01-02T10:42:20.666Z,4.2
2023-01-02T10:43:27.753Z,4.2
2023-01-02T10:44:34.821Z,4.2
2023-01-02T10:45:41.965Z,4.3
2023-01-02T10:46:48.634Z,4.3
2023-01-02T10:47:55.780Z,4.3
2023-01-02T10:49:02.721Z,4.3
2023-01-02T10:50:09.959Z,4.3
2023-01-02T10:51:16.483Z,4.4
2023-01-02T10:52:23.595Z,4.3
2023-01-02T10:53:30.635Z,4.4
2023-01-02T10:55:44.872Z,4.4
2023-01-02T10:56:51.446Z,4.4
2023-01-02T10:57:58.665Z,4.4
2023-01-02T10:59:05.986Z,4.4
2023-01-02T11:00:12.805Z,4.4
2023-01-02T11:01:20.046Z,4.4
2023-01-02T11:02:27.135Z,4.4
2023-01-02T11:04:40.914Z,4.4
2023-01-02T11:05:47.814Z,4.4
2023-01-02T11:06:54.897Z,4.4
2023-01-02T11:08:01.534Z,4.4
2023-01-02T11:09:08.594Z,4.4
2023-01-02T11:10:15.709Z,4.4
2023-01-02T11:11:22.747Z,4.4
2023-01-02T11:12:29.970Z,4.4
2023-01-02T11:13:36.612Z,4.4
2023-01-02T11:14:43.571Z,4.4
2023-01-02T11:15:50.845Z,4.4
2023-01-02T11:16:57.849Z,4.4
2023-01-02T11:18:04.898Z,4.4
2023-01-02T11:19:14.925Z,4.4
2023-01-02T11:20:18.649Z,4.4
2023-01-02T11:21:25.697Z,4.4
2023-01-02T11:22:32.831Z,4.4
2023-01-02T11:23:39.912Z,4.4
2023-01-02T11:24:46.999Z,4.4
2023-01-02T11:25:53.595Z,4.4
2023-01-02T11:27:01.733Z,4.4
2023-01-02T11:28:07.925Z,4.4
2023-01-02T11:29:14.892Z,4.4
2023-01-02T11:30:21.525Z,4.4
2023-01-02T11:31:28.618Z,4.4
2023-01-02T11:32:35.763Z,4.3
2023-01-02T11:33:42.926Z,4.3
2023-01-02T11:34:50.459Z,4.3
2023-01-02T11:35:56.536Z,4.2
2023-01-02T11:37:03.736Z,4.3
2023-01-02T11:38:10.802Z,4.3
2023-01-02T11:39:17.846Z,4.3
2023-01-02T11:40:25.521Z,4.3
2023-01-02T11:41:31.585Z,4.3
2023-01-02T11:42:39.036Z,4.4
2023-01-02T11:43:48.699Z,4.4
2023-01-02T11:44:53.980Z,4.4
2023-01-02T11:45:59.928Z,4.3
2023-01-02T11:47:06.527Z,4.3
2023-01-02T11:48:13.669Z,4.3
2023-01-02T11:49:23.695Z,4.3
2023-01-02T11:50:27.855Z,4.3
2023-01-02T11:51:34.988Z,4.2
2023-01-02T11:52:41.580Z,4.2
2023-01-02T11:53:48.712Z,4.2
2023-01-02T11:54:56.531Z,4.2
2023-01-02T11:56:02.809Z,4.2
2023-01-02T11:57:15.282Z,4.2
2023-01-02T11:59:23.947Z,4.2
2023-01-02T12:00:30.753Z,4.2
2023-01-02T12:01:37.850Z,4.2
2023-01-02T12:02:45.026Z,4.2
2023-01-02T12:03:51.596Z,4.2
2023-01-02T12:04:58.727Z,4.2
2023-01-02T12:06:05.750Z,4.2
2023-01-02T12:07:12.857Z,4.2
2023-01-02T12:08:19.966Z,4.2
2023-01-02T12:09:26.571Z,4.3
2023-01-02T12:10:33.726Z,4.3
2023-01-02T12:11:40.797Z,4.3
2023-01-02T12:12:47.864Z,4.3
2023-01-02T12:13:55.111Z,4.3
2023-01-02T12:15:01.567Z,4.3
2023-01-02T12:16:08.829Z,4.3
2023-01-02T12:17:15.757Z,4.3
2023-01-02T12:18:22.863Z,4.3
2023-01-02T12:19:30.085Z,4.3
2023-01-02T12:20:36.604Z,4.2
2023-01-02T12:21:43.717Z,4.2
2023-01-02T12:22:50.840Z,4.2
2023-01-02T12:23:57.871Z,4.2
2023-01-02T12:25:04.428Z,4.2
2023-01-02T12:26:11.600Z,4.2
2023-01-02T12:27:18.761Z,4.2
2023-01-02T12:28:25.805Z,4.2
2023-01-02T12:29:47.227Z,4.2
2023-01-02T12:30:39.458Z,4.2
2023-01-02T12:32:53.652Z,4.2
2023-01-02T12:34:00.742Z,4.2
2023-01-02T12:35:07.884Z,4.2
2023-01-02T12:36:15.014Z,4.2
2023-01-02T12:37:21.580Z,4.3
2023-01-02T12:38:33.189Z,4.3
2023-01-02T12:39:35.827Z,4.3
2023-01-02T12:40:42.893Z,4.3
2023-01-02T12:42:01.000Z,4.3
2023-01-02T12:42:56.666Z,4.3
2023-01-02T12:44:03.662Z,4.3
2023-01-02T12:45:10.803Z,4.3
2023-01-02T12:46:18.038Z,4.3
2023-01-02T12:47:24.967Z,4.3
2023-01-02T12:48:31.625Z,4.4
2023-01-02T12:49:38.695Z,4.3
2023-01-02T12:50:48.865Z,4.4
2023-01-02T12:51:52.872Z,4.3
2023-01-02T12:52:59.580Z,4.4
2023-01-02T12:54:18.607Z,4.3
2023-01-02T12:55:13.716Z,4.3
2023-01-02T12:56:20.809Z,4.3
2023-01-02T12:57:28.001Z,4.3
2023-01-02T12:58:34.471Z,4.3
2023-01-02T12:59:41.618Z,4.2
2023-01-02T13:00:48.850Z,4.2
2023-01-02T13:03:03.045Z,4.2
2023-01-02T13:04:10.056Z,4.2
2023-01-02T13:05:16.644Z,4.2
2023-01-02T13:06:44.762Z,4.2
2023-01-02T13:07:30.915Z,4.2
2023-01-02T13:08:38.498Z,4.2
2023-01-02T13:09:44.490Z,4.2
2023-01-02T13:10:51.694Z,4.2
2023-01-02T13:11:58.785Z,4.2
2023-01-02T13:13:05.868Z,4.2
2023-01-02T13:14:12.931Z,4.3
2023-01-02T13:15:19.567Z,4.3
2023-01-02T13:16:26.741Z,4.4
2023-01-02T13:17:33.774Z,4.4
2023-01-02T13:19:00.514Z,4.4
2023-01-02T13:19:47.941Z,4.4
2023-01-02T13:20:54.521Z,4.4
2023-01-02T13:22:01.636Z,4.4
2023-01-02T13:23:08.825Z,4.4
2023-01-02T13:24:15.853Z,4.4
2023-01-02T13:25:22.919Z,4.4
2023-01-02T13:26:29.571Z,4.4
2023-01-02T13:27:36.637Z,4.4
2023-01-02T13:28:43.773Z,4.4
2023-01-02T13:29:50.880Z,4.4
2023-01-02T13:31:19.156Z,4.4
2023-01-02T13:32:04.686Z,4.4
2023-01-02T13:33:11.734Z,4.4
2023-01-02T13:34:22.364Z,4.4
2023-01-02T13:35:25.896Z,4.4
2023-01-02T13:36:32.972Z,4.4
2023-01-02T13:37:39.585Z,4.4
2023-01-02T13:38:46.692Z,4.4
2023-01-02T13:39:53.794Z,4.4
2023-01-02T13:41:00.928Z,4.3
2023-01-02T13:42:09.676Z,4.3
2023-01-02T13:43:14.618Z,4.3
2023-01-02T13:44:21.687Z,4.3
2023-01-02T13:45:28.770Z,4.2
2023-01-02T13:47:02.654Z,4.2
2023-01-02T13:47:43.110Z,4.3
2023-01-02T13:48:49.580Z,4.2
2023-01-02T13:49:56.702Z,4.2
2023-01-02T13:51:03.806Z,4.2
2023-01-02T13:52:11.082Z,4.2
2023-01-02T13:53:18.022Z,4.2
2023-01-02T13:54:24.573Z,4.2
2023-01-02T13:55:32.096Z,4.2
2023-01-02T13:56:38.794Z,4.2
2023-01-02T13:57:46.003Z,4.3
2023-01-02T13:58:52.966Z,4.2
2023-01-02T14:01:06.807Z,4.2
2023-01-02T14:02:13.946Z,4.2
2023-01-02T14:03:21.166Z,4.2
2023-01-02T14:04:27.997Z,4.2
2023-01-02T14:06:41.723Z,4.2
2023-01-02T14:07:48.879Z,4.2
2023-01-02T14:08:55.902Z,4.2
2023-01-02T14:10:03.013Z,4.2
2023-01-02T14:11:09.646Z,4.2
2023-01-02T14:12:16.747Z,4.2
2023-01-02T14:13:23.870Z,4.3
2023-01-02T14:14:30.959Z,4.2
2023-01-02T14:15:38.103Z,4.3
2023-01-02T14:16:44.630Z,4.3
2023-01-02T14:17:51.705Z,4.2
2023-01-02T14:18:58.857Z,4.3
2023-01-02T14:20:05.923Z,4.3
2023-01-02T14:21:13.024Z,4.3
2023-01-02T14:22:19.643Z,4.4
2023-01-02T14:23:26.825Z,4.4
2023-01-02T14:24:33.797Z,4.5
2023-01-02T14:25:40.920Z,4.4
2023-01-02T14:26:47.518Z,4.4
2023-01-02T14:27:54.634Z,4.4
2023-01-02T14:29:01.733Z,4.4
2023-01-02T14:30:08.859Z,4.4
2023-01-02T14:31:16.026Z,4.4
2023-01-02T14:32:22.489Z,4.4
2023-01-02T14:33:29.677Z,4.4
2023-01-02T14:34:36.732Z,4.5
2023-01-02T14:35:43.850Z,4.5
2023-01-02T14:36:50.983Z,4.5
2023-01-02T14:37:57.574Z,4.5
2023-01-02T14:39:04.653Z,4.5
2023-01-02T14:40:11.703Z,4.5
2023-01-02T14:41:18.892Z,4.5
2023-01-02T14:42:31.016Z,4.5
2023-01-02T14:43:32.592Z,4.5
2023-01-02T14:44:39.666Z,4.5
2023-01-02T14:45:46.795Z,4.5
2023-01-02T14:46:53.852Z,4.5
2023-01-02T14:48:01.022Z,4.5
2023-01-02T14:49:26.236Z,4.5
2023-01-02T14:50:14.668Z,4.5
2023-01-02T14:51:24.935Z,4.5
2023-01-02T14:52:29.076Z,4.5
2023-01-02T14:53:36.050Z,4.4
2023-01-02T14:54:42.574Z,4.4
2023-01-02T14:55:49.665Z,4.5
2023-01-02T14:56:56.803Z,4.4
2023-01-02T14:58:03.987Z,4.4
2023-01-02T14:59:10.973Z,4.4
2023-01-02T15:00:17.555Z,4.4
2023-01-02T15:01:42.783Z,4.3
2023-01-02T15:02:31.998Z,4.2
2023-01-02T15:03:39.055Z,4.2
2023-01-02T15:04:46.522Z,4.1
2023-01-02T15:05:52.585Z,4
2023-01-02T15:07:01.251Z,4
2023-01-02T15:08:06.889Z,4
2023-01-02T15:10:21.105Z,3.9
2023-01-02T15:11:27.579Z,3.9
2023-01-02T15:12:34.755Z,3.9
2023-01-02T15:14:05.428Z,3.9
2023-01-02T15:14:48.899Z,3.9
2023-01-02T15:15:56.058Z,3.9
2023-01-02T15:17:02.620Z,3.9
2023-01-02T15:18:09.783Z,3.9
2023-01-02T15:19:16.782Z,3.9
2023-01-02T15:20:23.908Z,3.8
2023-01-02T15:21:31.064Z,3.8
2023-01-02T15:22:37.884Z,3.9
2023-01-02T15:23:44.699Z,3.9
2023-01-02T15:24:51.871Z,3.9
2023-01-02T15:26:32.841Z,3.9
2023-01-02T15:27:06.035Z,3.9
2023-01-02T15:29:19.824Z,3.9
2023-01-02T15:30:26.828Z,3.9
2023-01-02T15:31:33.994Z,3.9
2023-01-02T15:32:41.112Z,3.9
2023-01-02T15:33:47.647Z,3.9
2023-01-02T15:34:54.716Z,4
2023-01-02T15:36:01.811Z,4
2023-01-02T15:37:08.888Z,4
2023-01-02T15:38:15.622Z,4
2023-01-02T15:39:22.578Z,4
2023-01-02T15:40:29.732Z,4
2023-01-02T15:41:36.894Z,4
2023-01-02T15:42:43.977Z,4
2023-01-02T15:43:50.564Z,4
2023-01-02T15:44:57.672Z,4
2023-01-02T15:46:04.799Z,4.1
2023-01-02T15:47:15.536Z,4
2023-01-02T15:48:19.046Z,4
2023-01-02T15:49:25.575Z,4
2023-01-02T15:50:32.639Z,4
2023-01-02T15:51:41.844Z,4
2023-01-02T15:52:46.932Z,4.1
2023-01-02T15:53:58.597Z,4.1
2023-01-02T15:55:00.552Z,4.1
2023-01-02T15:56:07.666Z,4.1